Babin Zub - METAR stanice u blizini


METAR stanice u blizini

 

LYBE - Beograd / Surčin, Srbija
Ažurirano: 18/08/2018 08:00
Partly Cloudy
Partly Cloudy
 Pravac vetra J
Vetar: J 7 km/h
Temperatura: 21°C
Tačka rose: 19°C
Vlažnost: 88%
Pritisak: 1017 hPa
Oblaci: Partly Cloudy
Vidljivost: 9 km
2018/08/18 06:00 LYBE 180600Z 19004KT 160V240 9000 NSC 21/19 Q1017 NOSIG
LYBT - Beograd / Batajnica, Srbija
Ažurirano: 18/08/2018 08:00
Vedro
Vedro
 Pravac vetra varies
Vetar: varies 4 km/h
Temperatura: 21°C
Tačka rose: 18°C
Vlažnost: 83%
Pritisak: 1017 hPa
Pregled: Vedro
Vidljivost: greater than 10 km
2018/08/18 06:00 LYBT 180600Z VRB02KT CAVOK 21/18 Q1017 NOSIG
LYVR - Vršac, Srbija
Ažurirano: 18/08/2018 08:00
Vedro
Vedro
 Pravac vetra varies
Vetar: varies 4 km/h
Temperatura: 22°C
Tačka rose: 17°C
Vlažnost: 73%
Pritisak: 1017 hPa
Pregled: Vedro
Vidljivost: greater than 10 km
2018/08/18 06:00 LYVR 180600Z VRB02KT CAVOK 22/17 Q1017 NOSIG
 
LYKV - Lađevci, Srbija
Ažurirano: 18/08/2018 08:00
Partly Cloudy
Partly Cloudy
 Pravac vetra calm
Vetar: Tišina
Temperatura: 19°C
Tačka rose: 18°C
Vlažnost: 94%
Pritisak: 1018 hPa
Oblaci: Partly Cloudy
Vidljivost: 8 km
2018/08/18 06:00 LYKV 180600Z 00000KT 8000 NSC 19/18 Q1018 NOSIG
LYNI - Niš, Srbija
Ažurirano: 18/08/2018 08:00
Vedro
Vedro
 Pravac vetra varies
Vetar: varies 4 km/h
Temperatura: 19°C
Tačka rose: 16°C
Vlažnost: 83%
Pritisak: 1017 hPa
Pregled: Vedro
Vidljivost: greater than 10 km
2018/08/18 06:00 LYNI 180600Z VRB02KT CAVOK 19/16 Q1017 NOSIG
BKPR - Priština, Srbija
Ažurirano: 18/08/2018 08:30
Vedro
Vedro
 Pravac vetra varies
Vetar: varies 2 km/h
Temperatura: 19°C
Tačka rose: 14°C
Vlažnost: 73%
Pritisak: 1018 hPa
Pregled: Vedro
Vidljivost: greater than 10 km
2018/08/18 06:30 BKPR 180630Z VRB01KT CAVOK 19/14 Q1018 NOSIG
 
LHPP - Pecs / Pogany, Hungary
Ažurirano: 18/08/2018 07:45
Vedro
Vedro
 Pravac vetra ISI
Vetar: ISI 4 km/h
Temperatura: 23°C
Tačka rose: 16°C
Vlažnost: 65%
Pritisak: 1018 hPa
Pregled: Vedro
Vidljivost: greater than 10 km
2018/08/18 05:45 LHPP 180545Z 07002KT CAVOK 23/16 Q1018
LHUD - Szeged, Hungary
Ažurirano: 18/08/2018 07:45
Vedro
Vedro
 Pravac vetra S
Vetar: S 7 km/h
Temperatura: 24°C
Tačka rose: 18°C
Vlažnost: 69%
Pritisak: 1017 hPa
Pregled: Vedro
Vidljivost: greater than 10 km
2018/08/18 05:45 LHUD 180545Z 01004KT CAVOK 24/18 Q1017
LRTR - Timisoara, Romania
Ažurirano: 18/08/2018 08:00
Vedro
Vedro
 Pravac vetra IJI
Vetar: IJI 17 km/h
Temperatura: 22°C
Tačka rose: 18°C
Vlažnost: 78%
Pritisak: 1017 hPa
Pregled: Vedro
Vidljivost: greater than 10 km
2018/08/18 06:00 LRTR 180600Z 11009KT CAVOK 22/18 Q1017
 
LRCV - Craiova, Romania
Ažurirano: 18/08/2018 08:00
Vedro
Vedro
 Pravac vetra S
Vetar: S 6 km/h
Temperatura: 23°C
Tačka rose: 17°C
Vlažnost: 69%
Pritisak: 1016 hPa
Pregled: Vedro
Vidljivost: greater than 10 km
2018/08/18 06:00 LRCV 180600Z 36003KT 310V050 CAVOK 23/17 Q1016
LBSF - Sofia, Bulgaria
Ažurirano: 18/08/2018 08:00
Partly Cloudy
Partly Cloudy
 Pravac vetra calm
Vetar: Tišina
Temperatura: 18°C
Tačka rose: 15°C
Vlažnost: 83%
Pritisak: 1018 hPa
Oblaci: Partly Cloudy
Vidljivost: 7 km
2018/08/18 06:00 LBSF 180600Z 00000KT 7000 NSC 18/15 Q1018 BECMG CAVOK
LWSK - Skoplje, Makedonija
Ažurirano: 18/08/2018 08:00
Vedro
Vedro
 Pravac vetra calm
Vetar: Tišina
Temperatura: 20°C
Tačka rose: 17°C
Vlažnost: 83%
Pritisak: 1017 hPa
Pregled: Vedro
Vidljivost: greater than 10 km
2018/08/18 06:00 LWSK 180600Z 00000KT CAVOK 20/17 Q1017 NOSIG
 
LYPG - Podgorica, Crna Gora
Ažurirano: 18/08/2018 08:00
Vedro
Vedro
 Pravac vetra SSZ
Vetar: SSZ 15 km/h
Temperatura: 26°C
Tačka rose: 14°C
Vlažnost: 48%
Pritisak: 1014 hPa
Pregled: Vedro
Vidljivost: greater than 10 km
2018/08/18 06:00 LYPG 180600Z 34008KT 300V010 CAVOK 26/14 Q1014 NOSIG
LQSA - Sarajevo, Bosna i Hercegovina
Ažurirano: 18/08/2018 08:00
Mist, Pretežno oblačno
Mist, Pretežno oblačno
 Pravac vetra varies
Vetar: varies 2 km/h
Temperatura: 16°C
Tačka rose: 15°C
Vlažnost: 94%
Pritisak: 1019 hPa
Pregled: Mist
Oblaci: Mostly Cloudy
Vidljivost: 4 km
Cloud details: Mostly Cloudy 122 m
2018/08/18 06:00 LQSA 180600Z VRB01KT 3500 BR BKN004 16/15 Q1019 NOSIG
LDOS - Osijek, Hrvatksa
Ažurirano: 18/08/2018 08:00
Vedro
Vedro
 Pravac vetra I
Vetar: I 4 km/h
Temperatura: 22°C
Tačka rose: 18°C
Vlažnost: 78%
Pritisak: 1016 hPa
Pregled: Vedro
Vidljivost: greater than 10 km
2018/08/18 06:00 LDOS 180600Z 09002KT CAVOK 22/18 Q1016